createdAt,value
2023-01-29T00:00:18.616Z,-0.75
2023-01-29T00:03:07.012Z,-0.75
2023-01-29T00:05:35.542Z,-0.75
2023-01-29T00:08:04.107Z,-0.75
2023-01-29T00:10:32.458Z,-0.75
2023-01-29T00:13:00.800Z,-0.73
2023-01-29T00:15:29.090Z,-0.76
2023-01-29T00:17:57.436Z,-0.70
2023-01-29T00:20:25.743Z,-0.87
2023-01-29T00:22:54.130Z,-0.68
2023-01-29T00:25:22.697Z,-0.67
2023-01-29T00:27:51.783Z,-0.66
2023-01-29T00:30:21.182Z,-0.65
2023-01-29T00:32:49.640Z,-0.67
2023-01-29T00:35:18.051Z,-0.66
2023-01-29T00:37:46.313Z,-0.69
2023-01-29T00:40:15.424Z,-0.70
2023-01-29T00:43:05.652Z,-0.69
2023-01-29T00:45:34.625Z,-0.69
2023-01-29T00:48:04.455Z,-0.69
2023-01-29T00:50:32.872Z,-0.69
2023-01-29T00:53:01.743Z,-0.71
2023-01-29T00:55:30.174Z,-0.71
2023-01-29T00:57:58.470Z,-0.71
2023-01-29T01:00:26.849Z,-0.72
2023-01-29T01:03:07.792Z,-0.72
2023-01-29T01:05:39.295Z,-0.71
2023-01-29T01:08:28.218Z,-0.71
2023-01-29T01:11:05.279Z,-0.72
2023-01-29T01:13:34.948Z,-0.80
2023-01-29T01:16:13.206Z,-0.74
2023-01-29T01:18:42.767Z,-0.72
2023-01-29T01:21:11.226Z,-0.73
2023-01-29T01:23:40.298Z,-0.75
2023-01-29T01:26:11.082Z,-0.75
2023-01-29T01:28:39.716Z,-0.76
2023-01-29T01:31:12.472Z,-0.80
2023-01-29T01:33:41.285Z,-0.82
2023-01-29T01:36:09.976Z,-0.79
2023-01-29T01:38:45.358Z,-0.78
2023-01-29T01:41:20.186Z,-0.79
2023-01-29T01:43:49.587Z,-0.81
2023-01-29T01:46:18.551Z,-0.81
2023-01-29T01:48:52.842Z,-0.80
2023-01-29T01:51:24.763Z,-0.80
2023-01-29T01:54:08.436Z,-0.79
2023-01-29T01:56:44.254Z,-0.79
2023-01-29T01:59:19.761Z,-0.79
2023-01-29T02:01:53.846Z,-0.78
2023-01-29T02:04:43.901Z,-0.78
2023-01-29T02:07:34.051Z,-0.80
2023-01-29T02:10:17.503Z,-0.83
2023-01-29T02:12:46.781Z,-0.83
2023-01-29T02:15:17.543Z,-0.85
2023-01-29T02:17:48.499Z,-0.87
2023-01-29T02:20:29.221Z,-0.90
2023-01-29T02:23:33.981Z,-1.00
2023-01-29T02:26:39.698Z,-0.91
2023-01-29T02:29:25.333Z,-0.92
2023-01-29T02:32:17.727Z,-1.01
2023-01-29T02:35:30.283Z,-0.93
2023-01-29T02:38:35.872Z,-1.03
2023-01-29T02:41:22.569Z,-0.93
2023-01-29T02:43:57.654Z,-0.91
2023-01-29T02:46:38.389Z,-0.89
2023-01-29T02:49:13.047Z,-0.89
2023-01-29T02:51:53.183Z,-0.89
2023-01-29T02:54:41.430Z,-0.87
2023-01-29T02:57:23.497Z,-0.87
2023-01-29T02:59:58.204Z,-0.86
2023-01-29T03:02:34.749Z,-0.86
2023-01-29T03:05:06.158Z,-0.85
2023-01-29T03:07:41.423Z,-0.84
2023-01-29T03:10:31.159Z,-0.91
2023-01-29T03:13:13.823Z,-0.79
2023-01-29T03:15:48.567Z,-0.78
2023-01-29T03:18:43.846Z,-0.76
2023-01-29T03:21:51.698Z,-0.83
2023-01-29T03:24:56.614Z,-0.72
2023-01-29T03:27:55.450Z,-0.70
2023-01-29T03:30:46.736Z,-0.69
2023-01-29T03:33:46.269Z,-0.69
2023-01-29T03:36:45.370Z,-0.69
2023-01-29T03:39:16.583Z,-0.68
2023-01-29T03:42:10.268Z,-0.68
2023-01-29T03:44:54.713Z,-0.68
2023-01-29T03:47:40.652Z,-0.94
2023-01-29T03:50:16.372Z,-0.86
2023-01-29T03:52:53.712Z,-0.66
2023-01-29T03:55:32.621Z,-0.66
2023-01-29T03:58:37.207Z,-0.66
2023-01-29T04:01:21.336Z,-0.78
2023-01-29T04:04:05.960Z,-0.71
2023-01-29T04:06:38.340Z,-0.75
2023-01-29T04:09:16.613Z,-0.86
2023-01-29T04:11:50.611Z,-0.79
2023-01-29T04:14:19.367Z,-0.83
2023-01-29T04:16:52.711Z,-0.94
2023-01-29T04:19:31.793Z,-0.89
2023-01-29T04:22:14.218Z,-0.92
2023-01-29T04:24:42.997Z,-0.95
2023-01-29T04:27:23.396Z,-0.96
2023-01-29T04:29:55.421Z,-1.07
2023-01-29T04:32:34.784Z,-0.99
2023-01-29T04:35:06.222Z,-1.01
2023-01-29T04:37:55.629Z,-1.02
2023-01-29T04:40:44.105Z,-1.01
2023-01-29T04:43:51.832Z,-1.01
2023-01-29T04:46:27.059Z,-1.31
2023-01-29T04:49:34.545Z,-1.03
2023-01-29T04:52:17.026Z,-1.03
2023-01-29T04:54:58.578Z,-1.03
2023-01-29T04:57:40.647Z,-1.17
2023-01-29T05:00:12.717Z,-1.02
2023-01-29T05:02:43.440Z,-1.12
2023-01-29T05:05:15.220Z,-1.02
2023-01-29T05:07:44.335Z,-1.00
2023-01-29T05:10:15.370Z,-0.99
2023-01-29T05:12:47.909Z,-0.97
2023-01-29T05:15:23.345Z,-1.19
2023-01-29T05:17:53.928Z,-0.94
2023-01-29T05:20:22.921Z,-1.02
2023-01-29T05:22:51.375Z,-0.99
2023-01-29T05:25:26.683Z,-0.89
2023-01-29T05:28:13.642Z,-0.88
2023-01-29T05:30:43.441Z,-0.87
2023-01-29T05:33:23.448Z,-0.87
2023-01-29T05:35:52.279Z,-0.86
2023-01-29T05:38:21.736Z,-0.87
2023-01-29T05:40:50.589Z,-0.89
2023-01-29T05:43:21.463Z,-0.88
2023-01-29T05:46:00.957Z,-0.89
2023-01-29T05:48:31.503Z,-0.90
2023-01-29T05:51:04.382Z,-0.89
2023-01-29T05:53:33.695Z,-0.89
2023-01-29T05:56:03.472Z,-0.89
2023-01-29T05:58:32.314Z,-0.89
2023-01-29T06:01:11.297Z,-0.89
2023-01-29T06:03:39.602Z,-0.88
2023-01-29T06:06:08.528Z,-0.87
2023-01-29T06:08:37.254Z,-0.87
2023-01-29T06:11:08.445Z,-0.87
2023-01-29T06:13:36.771Z,-0.86
2023-01-29T06:16:09.579Z,-0.84
2023-01-29T06:18:38.516Z,-0.83
2023-01-29T06:21:10.493Z,-0.81
2023-01-29T06:23:39.075Z,-0.80
2023-01-29T06:26:13.104Z,-0.79
2023-01-29T06:28:42.873Z,-0.78
2023-01-29T06:31:30.371Z,-0.78
2023-01-29T06:34:00.291Z,-0.78
2023-01-29T06:36:29.045Z,-0.76
2023-01-29T06:38:57.597Z,-0.75
2023-01-29T06:41:26.833Z,-0.73
2023-01-29T06:43:55.109Z,-0.73
2023-01-29T06:46:23.508Z,-0.72
2023-01-29T06:48:51.816Z,-0.71
2023-01-29T06:51:21.541Z,-0.69
2023-01-29T06:53:50.029Z,-0.69
2023-01-29T06:56:18.285Z,-0.68
2023-01-29T06:58:46.743Z,-0.68
2023-01-29T07:01:29.275Z,-0.66
2023-01-29T07:04:01.793Z,-0.67
2023-01-29T07:06:31.039Z,-0.67
2023-01-29T07:08:59.963Z,-0.65
2023-01-29T07:11:28.571Z,-0.64
2023-01-29T07:13:57.063Z,-0.64
2023-01-29T07:16:26.676Z,-0.65
2023-01-29T07:18:55.178Z,-0.66
2023-01-29T07:21:24.219Z,-0.67
2023-01-29T07:23:52.552Z,-0.70
2023-01-29T07:26:20.978Z,-0.72
2023-01-29T07:28:49.367Z,-0.82
2023-01-29T07:31:17.833Z,-0.72
2023-01-29T07:33:47.821Z,-0.72
2023-01-29T07:36:16.304Z,-0.71
2023-01-29T07:38:44.570Z,-0.70
2023-01-29T07:41:12.974Z,-0.69
2023-01-29T07:43:41.333Z,-0.68
2023-01-29T07:46:09.750Z,-0.68
2023-01-29T07:48:38.067Z,-0.67
2023-01-29T07:51:06.590Z,-0.67
2023-01-29T07:53:36.016Z,-0.67
2023-01-29T07:56:04.559Z,-0.68
2023-01-29T07:58:34.446Z,-0.67
2023-01-29T08:01:08.008Z,-0.67
2023-01-29T08:03:36.888Z,-0.68
2023-01-29T08:06:05.466Z,-0.67
2023-01-29T08:08:34.163Z,-0.68
2023-01-29T08:11:04.232Z,-0.77
2023-01-29T08:13:33.325Z,-0.67
2023-01-29T08:16:03.062Z,-0.68
2023-01-29T08:18:34.318Z,-0.76
2023-01-29T08:21:02.688Z,-0.64
2023-01-29T08:23:30.990Z,-0.62
2023-01-29T08:25:59.393Z,-0.60
2023-01-29T08:28:27.790Z,-0.58
2023-01-29T08:30:56.152Z,-0.56
2023-01-29T08:33:37.953Z,-0.54
2023-01-29T08:36:08.544Z,-0.51
2023-01-29T08:38:37.272Z,-0.49
2023-01-29T08:41:06.518Z,-0.49
2023-01-29T08:43:39.248Z,-0.58
2023-01-29T08:46:08.656Z,-0.47
2023-01-29T08:48:38.488Z,-0.45
2023-01-29T08:51:06.829Z,-0.45
2023-01-29T08:53:35.689Z,-0.45
2023-01-29T08:56:04.336Z,-0.73
2023-01-29T08:58:32.956Z,-0.44
2023-01-29T09:01:09.226Z,-0.45
2023-01-29T09:03:41.201Z,-0.43
2023-01-29T09:06:11.488Z,-0.50
2023-01-29T09:08:40.657Z,-0.51
2023-01-29T09:11:09.239Z,-0.43
2023-01-29T09:13:37.594Z,-0.42
2023-01-29T09:16:06.307Z,-0.41
2023-01-29T09:18:34.723Z,-0.40
2023-01-29T09:21:03.136Z,-0.36
2023-01-29T09:23:34.151Z,-0.33
2023-01-29T09:26:02.451Z,-0.32
2023-01-29T09:28:30.823Z,-0.31
2023-01-29T09:31:02.927Z,-0.28
2023-01-29T09:33:32.588Z,-0.26
2023-01-29T09:36:03.885Z,-0.24
2023-01-29T09:38:32.123Z,-0.23
2023-01-29T09:41:38.372Z,-0.29
2023-01-29T09:44:44.299Z,-0.22
2023-01-29T09:47:16.951Z,-0.22
2023-01-29T09:49:57.332Z,-0.33
2023-01-29T09:52:30.448Z,-0.24
2023-01-29T09:55:13.022Z,-0.24
2023-01-29T09:57:54.851Z,-0.23
2023-01-29T10:00:35.119Z,-0.32
2023-01-29T10:03:03.443Z,-0.21
2023-01-29T10:05:50.141Z,-0.19
2023-01-29T10:08:36.620Z,-0.20
2023-01-29T10:11:23.876Z,-0.15
2023-01-29T10:14:13.901Z,-0.15
2023-01-29T10:17:09.523Z,-0.14
2023-01-29T10:19:56.009Z,-0.12
2023-01-29T10:22:33.347Z,-0.14
2023-01-29T10:25:05.629Z,-0.23
2023-01-29T10:27:38.767Z,-0.14
2023-01-29T10:30:18.433Z,-0.14
2023-01-29T10:32:48.896Z,-0.14
2023-01-29T10:35:27.704Z,-0.14
2023-01-29T10:37:58.688Z,-0.14
2023-01-29T10:40:35.013Z,-0.13
2023-01-29T10:43:14.702Z,-0.12
2023-01-29T10:46:10.327Z,-0.12
2023-01-29T10:48:58.451Z,-0.11
2023-01-29T10:51:42.664Z,-0.10
2023-01-29T10:54:29.344Z,-0.23
2023-01-29T10:57:18.599Z,-0.08
2023-01-29T11:00:07.698Z,-0.06
2023-01-29T11:02:36.797Z,-0.14
2023-01-29T11:05:19.718Z,-0.04
2023-01-29T11:07:49.742Z,-0.05
2023-01-29T11:10:22.635Z,-0.05
2023-01-29T11:12:51.141Z,-0.03
2023-01-29T11:15:30.922Z,-0.10
2023-01-29T11:18:14.355Z,-0.01
2023-01-29T11:20:44.560Z,-0.01
2023-01-29T11:23:28.675Z,0.00
2023-01-29T11:25:58.765Z,0.00
2023-01-29T11:28:48.431Z,0.01
2023-01-29T11:31:29.893Z,-0.00
2023-01-29T11:34:19.585Z,0.03
2023-01-29T11:37:01.867Z,0.03
2023-01-29T11:39:32.651Z,0.04
2023-01-29T11:42:04.716Z,0.07
2023-01-29T11:44:33.207Z,0.09
2023-01-29T11:47:16.577Z,0.11
2023-01-29T11:49:54.013Z,0.13
2023-01-29T11:52:28.525Z,0.17
2023-01-29T11:55:01.162Z,0.10
2023-01-29T11:57:36.175Z,0.22
2023-01-29T12:00:08.203Z,-0.07
2023-01-29T12:02:42.225Z,0.26
2023-01-29T12:05:22.778Z,0.29
2023-01-29T12:07:54.756Z,0.33
2023-01-29T12:10:37.290Z,0.35
2023-01-29T12:13:12.212Z,0.37
2023-01-29T12:15:42.881Z,0.39
2023-01-29T12:18:30.566Z,0.39
2023-01-29T12:21:04.932Z,0.29
2023-01-29T12:23:45.443Z,0.41
2023-01-29T12:26:24.751Z,0.43
2023-01-29T12:29:27.290Z,0.43
2023-01-29T12:32:06.231Z,0.45
2023-01-29T12:34:47.125Z,0.35
2023-01-29T12:37:36.275Z,0.46
2023-01-29T12:40:16.395Z,0.49
2023-01-29T12:42:50.866Z,0.52
2023-01-29T12:45:22.432Z,0.53
2023-01-29T12:47:55.764Z,0.55
2023-01-29T12:50:33.043Z,0.58
2023-01-29T12:53:28.957Z,0.55
2023-01-29T12:56:06.384Z,0.61
2023-01-29T12:58:41.858Z,0.64
2023-01-29T13:01:17.797Z,0.65
2023-01-29T13:04:10.660Z,0.67
2023-01-29T13:06:48.156Z,0.69
2023-01-29T13:09:22.481Z,0.71
2023-01-29T13:11:53.763Z,0.73
2023-01-29T13:15:01.493Z,0.74
2023-01-29T13:17:53.736Z,0.76
2023-01-29T13:20:29.137Z,0.77
2023-01-29T13:23:06.333Z,0.78
2023-01-29T13:25:34.636Z,0.80
2023-01-29T13:28:03.215Z,0.82
2023-01-29T13:30:36.743Z,0.83
2023-01-29T13:33:10.220Z,0.83
2023-01-29T13:35:45.892Z,0.84
2023-01-29T13:38:32.466Z,0.84
2023-01-29T13:41:04.914Z,0.84
2023-01-29T13:43:37.767Z,0.84
2023-01-29T13:46:17.867Z,0.84
2023-01-29T13:48:49.856Z,0.85
2023-01-29T13:51:23.344Z,0.87
2023-01-29T13:54:02.594Z,0.88
2023-01-29T13:56:43.219Z,0.90
2023-01-29T13:59:49.590Z,0.92
2023-01-29T14:02:20.497Z,0.94
2023-01-29T14:04:48.957Z,0.94
2023-01-29T14:07:40.386Z,0.93
2023-01-29T14:10:20.012Z,0.92
2023-01-29T14:12:53.183Z,0.87
2023-01-29T14:15:28.694Z,0.90
2023-01-29T14:18:07.219Z,0.80
2023-01-29T14:20:47.048Z,0.92
2023-01-29T14:23:34.012Z,0.94
2023-01-29T14:26:06.292Z,0.95
2023-01-29T14:28:35.496Z,0.83
2023-01-29T14:31:04.367Z,0.99
2023-01-29T14:33:39.806Z,1.01
2023-01-29T14:36:18.279Z,1.02
2023-01-29T14:38:52.560Z,1.03
2023-01-29T14:41:27.386Z,1.05
2023-01-29T14:44:40.020Z,1.01
2023-01-29T14:47:19.485Z,1.07
2023-01-29T14:49:59.295Z,1.07
2023-01-29T14:52:39.261Z,1.08
2023-01-29T14:55:26.064Z,1.09
2023-01-29T14:57:58.398Z,1.10
2023-01-29T15:00:50.569Z,1.11
2023-01-29T15:03:48.806Z,1.10
2023-01-29T15:06:32.701Z,1.10
2023-01-29T15:09:13.378Z,1.10
2023-01-29T15:11:52.513Z,1.09
2023-01-29T15:14:36.836Z,1.07
2023-01-29T15:17:17.469Z,1.07
2023-01-29T15:19:50.750Z,1.06
2023-01-29T15:22:21.649Z,1.05
2023-01-29T15:25:07.478Z,1.04
2023-01-29T15:27:36.144Z,1.04
2023-01-29T15:30:08.301Z,1.03
2023-01-29T15:32:39.257Z,1.03
2023-01-29T15:35:20.418Z,1.01
2023-01-29T15:38:20.421Z,1.00
2023-01-29T15:40:56.733Z,1.01
2023-01-29T15:43:37.085Z,1.00
2023-01-29T15:46:12.564Z,0.86
2023-01-29T15:48:44.331Z,0.88
2023-01-29T15:51:18.893Z,0.95
2023-01-29T15:53:47.869Z,0.95
2023-01-29T15:56:20.797Z,0.93
2023-01-29T15:58:52.151Z,0.94
2023-01-29T16:01:20.601Z,0.73
2023-01-29T16:03:52.108Z,0.90
2023-01-29T16:06:22.455Z,0.90
2023-01-29T16:08:54.686Z,0.89
2023-01-29T16:11:23.314Z,0.79
2023-01-29T16:13:53.324Z,0.88
2023-01-29T16:16:26.912Z,0.88
2023-01-29T16:19:00.374Z,0.87
2023-01-29T16:21:38.115Z,0.87
2023-01-29T16:24:14.104Z,0.88
2023-01-29T16:26:45.534Z,0.88
2023-01-29T16:29:17.346Z,0.79
2023-01-29T16:31:48.718Z,0.89
2023-01-29T16:34:35.223Z,0.90
2023-01-29T16:37:07.757Z,0.90
2023-01-29T16:39:39.831Z,0.90
2023-01-29T16:42:17.501Z,0.92
2023-01-29T16:44:51.727Z,0.92
2023-01-29T16:47:28.398Z,0.94
2023-01-29T16:50:17.923Z,0.95
2023-01-29T16:53:12.697Z,0.95
2023-01-29T16:55:46.159Z,0.94
2023-01-29T16:58:21.516Z,0.94
2023-01-29T17:00:54.178Z,0.93
2023-01-29T17:03:27.149Z,0.93
2023-01-29T17:05:55.596Z,0.94
2023-01-29T17:08:32.427Z,0.95
2023-01-29T17:11:02.033Z,0.96
2023-01-29T17:13:42.963Z,0.95
2023-01-29T17:16:23.608Z,0.96
2023-01-29T17:18:52.176Z,0.96
2023-01-29T17:21:20.700Z,0.96
2023-01-29T17:23:49.321Z,0.96
2023-01-29T17:26:18.662Z,0.96
2023-01-29T17:28:50.203Z,0.97
2023-01-29T17:31:18.756Z,0.95
2023-01-29T17:33:47.632Z,0.94
2023-01-29T17:36:17.771Z,0.94
2023-01-29T17:38:47.092Z,0.91
2023-01-29T17:41:23.272Z,0.88
2023-01-29T17:43:52.076Z,0.86
2023-01-29T17:46:20.566Z,0.75
2023-01-29T17:48:52.576Z,0.83
2023-01-29T17:51:21.493Z,0.81
2023-01-29T17:53:50.712Z,0.80
2023-01-29T17:56:29.706Z,0.80
2023-01-29T17:58:58.198Z,0.79
2023-01-29T18:01:26.624Z,0.77
2023-01-29T18:03:56.239Z,0.76
2023-01-29T18:06:29.403Z,0.75
2023-01-29T18:08:58.772Z,0.72
2023-01-29T18:11:27.353Z,0.72
2023-01-29T18:13:56.922Z,0.70
2023-01-29T18:16:25.865Z,0.69
2023-01-29T18:18:55.063Z,0.66
2023-01-29T18:21:23.505Z,0.64
2023-01-29T18:23:51.877Z,0.62
2023-01-29T18:26:20.363Z,0.60
2023-01-29T18:28:50.275Z,0.59
2023-01-29T18:31:18.737Z,0.57
2023-01-29T18:33:47.597Z,0.56
2023-01-29T18:36:15.987Z,0.54
2023-01-29T18:38:44.694Z,0.53
2023-01-29T18:41:13.198Z,0.53
2023-01-29T18:43:44.933Z,0.44
2023-01-29T18:46:13.502Z,0.44
2023-01-29T18:48:42.965Z,0.53
2023-01-29T18:51:11.581Z,0.52
2023-01-29T18:53:39.998Z,0.52
2023-01-29T18:56:10.163Z,0.52
2023-01-29T18:58:38.609Z,0.52
2023-01-29T19:01:11.024Z,0.52
2023-01-29T19:03:41.176Z,0.52
2023-01-29T19:06:11.448Z,0.51
2023-01-29T19:08:40.995Z,0.49
2023-01-29T19:11:09.864Z,0.48
2023-01-29T19:13:38.881Z,0.47
2023-01-29T19:16:12.764Z,0.41
2023-01-29T19:18:41.294Z,0.47
2023-01-29T19:21:12.805Z,0.47
2023-01-29T19:23:43.230Z,0.48
2023-01-29T19:26:12.243Z,0.49
2023-01-29T19:28:40.779Z,0.50
2023-01-29T19:31:12.113Z,0.50
2023-01-29T19:33:40.894Z,0.48
2023-01-29T19:36:09.623Z,0.49
2023-01-29T19:38:38.906Z,0.49
2023-01-29T19:41:07.319Z,0.50
2023-01-29T19:43:38.262Z,0.50
2023-01-29T19:46:07.678Z,0.50
2023-01-29T19:48:36.701Z,0.50
2023-01-29T19:51:08.713Z,0.51
2023-01-29T19:53:38.599Z,0.52
2023-01-29T19:56:10.796Z,0.51
2023-01-29T19:58:39.465Z,0.52
2023-01-29T20:01:15.536Z,0.52
2023-01-29T20:03:48.209Z,0.52
2023-01-29T20:06:20.059Z,0.53
2023-01-29T20:08:48.671Z,0.52
2023-01-29T20:11:20.648Z,0.53
2023-01-29T20:13:50.893Z,0.53
2023-01-29T20:16:20.409Z,0.54
2023-01-29T20:18:49.062Z,0.54
2023-01-29T20:21:22.924Z,0.55
2023-01-29T20:23:52.451Z,0.55
2023-01-29T20:26:22.213Z,0.55
2023-01-29T20:28:50.912Z,0.54
2023-01-29T20:31:19.355Z,0.54
2023-01-29T20:33:47.812Z,0.54
2023-01-29T20:36:16.251Z,0.54
2023-01-29T20:38:44.855Z,0.53
2023-01-29T20:41:15.812Z,0.55
2023-01-29T20:43:45.471Z,0.56
2023-01-29T20:46:13.885Z,0.55
2023-01-29T20:48:42.599Z,0.55
2023-01-29T20:51:15.487Z,0.55
2023-01-29T20:53:46.364Z,0.53
2023-01-29T20:56:16.899Z,0.57
2023-01-29T20:58:46.932Z,0.57
2023-01-29T21:01:18.824Z,0.49
2023-01-29T21:03:48.080Z,0.60
2023-01-29T21:06:16.439Z,0.61
2023-01-29T21:08:44.795Z,0.61
2023-01-29T21:11:13.071Z,0.62
2023-01-29T21:13:42.904Z,0.63
2023-01-29T21:16:11.504Z,0.56
2023-01-29T21:18:40.077Z,0.64
2023-01-29T21:21:08.458Z,0.65
2023-01-29T21:23:36.875Z,0.66
2023-01-29T21:26:06.458Z,0.67
2023-01-29T21:28:35.011Z,0.66
2023-01-29T21:31:09.490Z,0.65
2023-01-29T21:33:38.628Z,0.65
2023-01-29T21:36:08.140Z,0.66
2023-01-29T21:38:36.743Z,0.66
2023-01-29T21:41:09.020Z,0.66
2023-01-29T21:43:37.772Z,0.67
2023-01-29T21:46:14.038Z,0.67
2023-01-29T21:48:43.490Z,0.67
2023-01-29T21:51:11.825Z,0.67
2023-01-29T21:53:40.160Z,0.68
2023-01-29T21:56:08.539Z,0.68
2023-01-29T21:58:37.064Z,0.68
2023-01-29T22:01:18.221Z,0.69
2023-01-29T22:03:55.435Z,0.69
2023-01-29T22:06:24.297Z,0.60
2023-01-29T22:08:52.811Z,0.46
2023-01-29T22:11:21.301Z,0.69
2023-01-29T22:13:49.762Z,0.68
2023-01-29T22:16:18.200Z,0.57
2023-01-29T22:18:49.202Z,0.67
2023-01-29T22:21:17.619Z,0.57
2023-01-29T22:23:49.554Z,0.59
2023-01-29T22:26:18.071Z,0.69
2023-01-29T22:28:47.446Z,0.69
2023-01-29T22:31:16.011Z,0.70
2023-01-29T22:33:44.378Z,0.71
2023-01-29T22:36:12.932Z,0.73
2023-01-29T22:38:44.771Z,0.60
2023-01-29T22:41:13.871Z,0.75
2023-01-29T22:43:44.162Z,0.66
2023-01-29T22:46:13.172Z,0.78
2023-01-29T22:48:41.755Z,0.79
2023-01-29T22:51:10.552Z,0.79
2023-01-29T22:53:41.425Z,0.80
2023-01-29T22:56:11.335Z,0.79
2023-01-29T22:58:41.217Z,0.80
2023-01-29T23:01:10.318Z,0.80
2023-01-29T23:03:47.991Z,0.80
2023-01-29T23:06:17.586Z,0.81
2023-01-29T23:08:45.904Z,0.80
2023-01-29T23:11:17.784Z,0.80
2023-01-29T23:13:48.964Z,0.80
2023-01-29T23:16:18.297Z,0.79
2023-01-29T23:18:50.955Z,0.60
2023-01-29T23:21:21.624Z,0.78
2023-01-29T23:23:52.420Z,0.78
2023-01-29T23:26:39.752Z,0.76
2023-01-29T23:29:08.118Z,0.75
2023-01-29T23:31:36.610Z,0.71
2023-01-29T23:34:05.129Z,0.73
2023-01-29T23:36:33.506Z,0.72
2023-01-29T23:39:01.841Z,0.72
2023-01-29T23:41:30.238Z,0.71
2023-01-29T23:43:58.702Z,0.61
2023-01-29T23:46:27.419Z,0.71
2023-01-29T23:48:55.737Z,0.72
2023-01-29T23:51:24.427Z,0.72
2023-01-29T23:53:53.159Z,0.72
2023-01-29T23:56:21.531Z,0.71
2023-01-29T23:58:56.669Z,0.72
